Time;durP1;ratioP1;P1;durP2;ratioP2;P2;SDS_P1;SDS_P2;PMS_P1;PMS_P2;Temp;Humidity;BMP_temperature;BMP_pressure;BME280_temperature;BME280_humidity;BME280_pressure;Samples;Min_cycle;Max_cycle;Signal;HPM_P1;HPM_P2
2022/03/19 00:01:40;;;;;;;39.67;28.77;;;;;;;;;;6159168;23;20522;-79
2022/03/19 00:04:06;;;;;;;39.57;27.03;;;;;;;;;;6156994;23;20171;-79
2022/03/19 00:06:36;;;;;;;34.50;25.27;;;;;;;;;;6158999;23;20147;-79
2022/03/19 00:09:03;;;;;;;40.53;26.97;;;;;;;;;;6158523;23;20170;-79
2022/03/19 00:11:30;;;;;;;36.27;24.13;;;;;;;;;;6159069;23;20297;-78
2022/03/19 00:13:56;;;;;;;36.43;24.83;;;;;;;;;;6158604;23;20216;-78
2022/03/19 00:16:22;;;;;;;35.83;24.80;;;;;;;;;;6158324;23;20463;-78
2022/03/19 00:18:48;;;;;;;35.83;23.50;;;;;;;;;;6158407;23;20183;-79
2022/03/19 00:21:15;;;;;;;34.33;23.50;;;;;;;;;;6158815;23;20235;-80
2022/03/19 00:23:41;;;;;;;33.77;24.83;;;;;;;;;;6159017;23;20148;-78
2022/03/19 00:26:07;;;;;;;33.97;24.23;;;;;;;;;;6158938;23;20167;-79
2022/03/19 00:28:33;;;;;;;32.73;23.10;;;;;;;;;;6158210;23;20158;-80
2022/03/19 00:30:59;;;;;;;36.87;24.20;;;;;;;;;;6158880;23;20494;-79
2022/03/19 00:33:26;;;;;;;33.93;24.70;;;;;;;;;;6158258;23;20156;-79
2022/03/19 00:35:52;;;;;;;35.80;24.50;;;;;;;;;;6159080;23;20210;-78
2022/03/19 00:38:18;;;;;;;36.23;25.57;;;;;;;;;;6159237;23;20190;-78
2022/03/19 00:40:45;;;;;;;36.67;24.40;;;;;;;;;;6159305;23;20155;-78
2022/03/19 00:43:12;;;;;;;33.57;24.90;;;;;;;;;;6159229;23;20491;-78
2022/03/19 00:45:38;;;;;;;40.13;26.77;;;;;;;;;;6158381;23;20683;-78
2022/03/19 00:48:04;;;;;;;38.63;26.23;;;;;;;;;;6158788;23;20242;-79
2022/03/19 00:50:30;;;;;;;43.93;26.43;;;;;;;;;;6156887;23;20232;-79
2022/03/19 00:52:56;;;;;;;37.63;25.60;;;;;;;;;;6157130;23;20155;-79
2022/03/19 00:55:22;;;;;;;40.20;28.00;;;;;;;;;;6158391;23;20254;-78
2022/03/19 00:57:49;;;;;;;40.80;26.80;;;;;;;;;;6160015;23;20175;-79
2022/03/19 01:00:16;;;;;;;40.70;27.80;;;;;;;;;;6158161;23;20188;-79
2022/03/19 01:02:43;;;;;;;43.20;28.60;;;;;;;;;;6133344;23;20148;-79
2022/03/19 01:05:09;;;;;;;41.33;26.93;;;;;;;;;;6159205;23;20255;-79
2022/03/19 01:07:42;;;;;;;44.10;30.00;;;;;;;;;;6158242;23;20230;-79
2022/03/19 01:10:09;;;;;;;50.37;29.60;;;;;;;;;;6156623;23;20166;-79
2022/03/19 01:12:35;;;;;;;49.30;31.17;;;;;;;;;;6159677;23;20154;-78
2022/03/19 01:15:01;;;;;;;51.20;32.83;;;;;;;;;;6160189;23;20672;-79
2022/03/19 01:17:27;;;;;;;53.53;33.37;;;;;;;;;;6160021;23;20664;-79
2022/03/19 01:19:53;;;;;;;48.97;31.97;;;;;;;;;;6160611;23;20541;-78
2022/03/19 01:22:21;;;;;;;58.37;34.60;;;;;;;;;;6158526;23;20536;-78
2022/03/19 01:24:47;;;;;;;55.50;34.37;;;;;;;;;;6159945;23;20175;-79
2022/03/19 01:27:13;;;;;;;56.80;34.80;;;;;;;;;;6160102;23;20179;-78
2022/03/19 01:29:39;;;;;;;58.00;35.53;;;;;;;;;;6158972;23;20163;-78
2022/03/19 01:32:05;;;;;;;56.57;34.37;;;;;;;;;;6159859;23;20628;-78
2022/03/19 01:34:31;;;;;;;53.80;34.03;;;;;;;;;;6159615;23;20187;-79
2022/03/19 01:36:57;;;;;;;59.07;35.73;;;;;;;;;;6160186;23;20182;-78
2022/03/19 01:39:23;;;;;;;59.07;35.13;;;;;;;;;;6158546;23;20147;-79
2022/03/19 01:41:50;;;;;;;55.87;34.53;;;;;;;;;;6159723;23;20154;-79
2022/03/19 01:44:19;;;;;;;58.07;34.77;;;;;;;;;;6157599;23;20168;-78
2022/03/19 01:46:59;;;;;;;59.93;35.90;;;;;;;;;;6159901;23;20150;-79
2022/03/19 01:49:25;;;;;;;58.63;36.43;;;;;;;;;;6159950;23;20613;-78
2022/03/19 01:51:52;;;;;;;56.27;35.10;;;;;;;;;;6159502;23;20151;-78
2022/03/19 01:54:23;;;;;;;60.10;36.20;;;;;;;;;;6160483;23;20182;-78
2022/03/19 01:56:49;;;;;;;59.20;35.10;;;;;;;;;;6160063;23;20143;-79
2022/03/19 01:59:16;;;;;;;62.63;36.83;;;;;;;;;;6159976;23;20179;-78
2022/03/19 02:01:43;;;;;;;64.33;37.60;;;;;;;;;;6159720;23;20157;-79
2022/03/19 02:04:10;;;;;;;63.20;37.27;;;;;;;;;;6159258;23;20167;-78
2022/03/19 02:06:37;;;;;;;62.87;37.93;;;;;;;;;;6159402;23;20157;-78
2022/03/19 02:09:03;;;;;;;60.63;37.63;;;;;;;;;;6160195;23;20152;-78
2022/03/19 02:11:30;;;;;;;63.73;37.03;;;;;;;;;;6159121;23;20205;-78
2022/03/19 02:13:56;;;;;;;65.40;38.13;;;;;;;;;;6160012;23;20220;-78
2022/03/19 02:16:22;;;;;;;66.73;40.23;;;;;;;;;;6160639;23;20601;-79
2022/03/19 02:18:48;;;;;;;60.53;38.27;;;;;;;;;;6160188;23;20175;-78
2022/03/19 02:21:14;;;;;;;62.97;39.03;;;;;;;;;;6159906;23;20639;-78
2022/03/19 02:26:25;;;;;;;62.13;39.20;;;;;;;;;;6160468;23;20532;-78
2022/03/19 02:28:51;;;;;;;62.03;37.80;;;;;;;;;;6154934;23;20578;-79
2022/03/19 02:31:17;;;;;;;62.83;38.93;;;;;;;;;;6155751;23;20531;-79
2022/03/19 02:33:43;;;;;;;63.83;39.23;;;;;;;;;;6157643;23;20162;-78
2022/03/19 02:36:10;;;;;;;67.13;40.57;;;;;;;;;;6180668;23;20338;-79
2022/03/19 02:38:35;;;;;;;69.37;40.83;;;;;;;;;;6160092;23;20225;-79
2022/03/19 02:41:05;;;;;;;70.43;41.47;;;;;;;;;;6182296;23;20161;-78
2022/03/19 02:43:31;;;;;;;66.63;40.47;;;;;;;;;;6159946;23;20210;-78
2022/03/19 02:45:58;;;;;;;73.47;42.60;;;;;;;;;;6160385;23;20163;-79
2022/03/19 02:48:24;;;;;;;68.27;42.07;;;;;;;;;;6159977;23;20151;-78
2022/03/19 02:50:50;;;;;;;79.43;45.10;;;;;;;;;;6181521;23;20554;-79
2022/03/19 02:53:16;;;;;;;81.33;45.67;;;;;;;;;;6158671;23;20151;-79
2022/03/19 02:55:42;;;;;;;77.40;44.87;;;;;;;;;;6157075;23;20242;-78
2022/03/19 02:58:09;;;;;;;79.03;46.80;;;;;;;;;;6157163;23;20179;-80
2022/03/19 03:00:36;;;;;;;78.43;45.50;;;;;;;;;;6159349;23;20166;-78
2022/03/19 03:03:04;;;;;;;80.87;47.87;;;;;;;;;;6160139;23;20147;-78
2022/03/19 03:05:30;;;;;;;80.53;46.87;;;;;;;;;;6159249;23;20556;-79
2022/03/19 03:07:56;;;;;;;81.63;47.17;;;;;;;;;;6158283;23;20150;-78
2022/03/19 03:10:23;;;;;;;89.90;47.17;;;;;;;;;;6182732;23;20160;-78
2022/03/19 03:12:49;;;;;;;85.90;48.67;;;;;;;;;;6133705;23;20160;-78
2022/03/19 03:15:15;;;;;;;74.63;45.53;;;;;;;;;;6159061;23;20227;-79
2022/03/19 03:17:41;;;;;;;82.20;47.33;;;;;;;;;;6158990;23;20175;-79
2022/03/19 03:20:08;;;;;;;81.47;47.10;;;;;;;;;;6159290;23;20178;-78
2022/03/19 03:22:36;;;;;;;86.17;49.43;;;;;;;;;;6159357;23;20150;-78
2022/03/19 03:25:02;;;;;;;80.90;46.87;;;;;;;;;;6182502;23;20174;-79
2022/03/19 03:27:28;;;;;;;83.57;47.03;;;;;;;;;;6182460;23;20166;-78
2022/03/19 03:29:54;;;;;;;84.90;48.70;;;;;;;;;;6160845;23;20483;-78
2022/03/19 03:32:20;;;;;;;92.77;52.00;;;;;;;;;;6159022;23;20154;-78
2022/03/19 03:34:46;;;;;;;88.80;49.63;;;;;;;;;;6158295;23;20253;-78
2022/03/19 03:37:12;;;;;;;89.90;51.47;;;;;;;;;;6159395;23;20155;-78
2022/03/19 03:39:38;;;;;;;94.00;52.17;;;;;;;;;;6158587;23;20674;-79
2022/03/19 03:42:04;;;;;;;89.93;51.23;;;;;;;;;;6159493;23;20146;-79
2022/03/19 03:44:30;;;;;;;87.83;49.17;;;;;;;;;;6157096;23;20175;-79
2022/03/19 03:46:56;;;;;;;87.40;50.30;;;;;;;;;;6157828;23;20158;-79
2022/03/19 03:49:22;;;;;;;89.20;51.43;;;;;;;;;;6158775;23;20350;-78
2022/03/19 03:51:48;;;;;;;88.93;50.93;;;;;;;;;;6157729;23;20609;-79
2022/03/19 03:54:14;;;;;;;86.93;51.33;;;;;;;;;;6158790;23;20513;-78
2022/03/19 03:56:41;;;;;;;93.20;50.17;;;;;;;;;;6159222;23;20157;-79
2022/03/19 03:59:07;;;;;;;87.60;49.40;;;;;;;;;;6158583;23;20625;-78
2022/03/19 04:01:33;;;;;;;90.67;49.90;;;;;;;;;;6158698;23;20150;-78
2022/03/19 04:03:59;;;;;;;90.37;51.80;;;;;;;;;;6157225;23;20155;-79
2022/03/19 04:06:25;;;;;;;86.00;48.93;;;;;;;;;;6159574;23;20155;-79
2022/03/19 04:08:51;;;;;;;86.03;48.63;;;;;;;;;;6159006;23;20239;-79
2022/03/19 04:11:17;;;;;;;87.70;49.83;;;;;;;;;;6158979;23;20147;-79
2022/03/19 04:13:43;;;;;;;81.67;47.47;;;;;;;;;;6158770;23;20490;-78
2022/03/19 04:16:09;;;;;;;79.83;47.07;;;;;;;;;;6157855;23;20175;-79
2022/03/19 04:18:35;;;;;;;80.47;46.83;;;;;;;;;;6159309;23;20205;-79
2022/03/19 04:21:01;;;;;;;85.07;49.47;;;;;;;;;;6159298;23;20158;-79
2022/03/19 04:23:27;;;;;;;81.43;47.40;;;;;;;;;;6157543;23;20561;-79
2022/03/19 04:25:53;;;;;;;87.23;49.10;;;;;;;;;;6157475;23;20223;-79
2022/03/19 04:28:19;;;;;;;83.73;47.80;;;;;;;;;;6158913;23;20157;-78
2022/03/19 04:30:45;;;;;;;84.37;49.53;;;;;;;;;;6159008;23;20165;-79
2022/03/19 04:33:11;;;;;;;85.10;49.00;;;;;;;;;;6157692;23;20154;-79
2022/03/19 04:38:22;;;;;;;81.27;45.83;;;;;;;;;;6158501;23;20564;-79
2022/03/19 04:40:50;;;;;;;77.90;46.40;;;;;;;;;;6158775;23;20151;-78
2022/03/19 04:43:16;;;;;;;85.17;47.10;;;;;;;;;;6157655;23;20242;-79
2022/03/19 04:45:42;;;;;;;78.57;46.70;;;;;;;;;;6157403;23;20206;-78
2022/03/19 04:48:09;;;;;;;80.33;46.37;;;;;;;;;;6158919;23;20151;-79
2022/03/19 04:50:38;;;;;;;78.53;47.47;;;;;;;;;;6160132;23;20503;-79
2022/03/19 04:53:06;;;;;;;77.67;46.33;;;;;;;;;;6164992;23;20234;-79
2022/03/19 04:55:32;;;;;;;82.13;48.57;;;;;;;;;;6166689;23;20171;-79
2022/03/19 04:57:58;;;;;;;82.67;46.57;;;;;;;;;;6165121;23;20191;-79
2022/03/19 05:00:25;;;;;;;79.63;46.87;;;;;;;;;;6164230;23;20155;-79
2022/03/19 05:02:51;;;;;;;78.20;46.73;;;;;;;;;;6163981;23;20151;-80
2022/03/19 05:05:18;;;;;;;85.53;49.47;;;;;;;;;;6158502;23;20170;-79
2022/03/19 05:07:44;;;;;;;81.07;48.20;;;;;;;;;;6158739;23;20178;-78
2022/03/19 05:12:55;;;;;;;82.50;47.23;;;;;;;;;;6161884;22;20147;-82
2022/03/19 05:15:21;;;;;;;83.17;49.20;;;;;;;;;;6161675;23;20195;-81
2022/03/19 05:17:47;;;;;;;83.00;47.10;;;;;;;;;;6162364;23;20650;-81
2022/03/19 05:20:14;;;;;;;79.30;46.90;;;;;;;;;;6133882;23;20153;-82
2022/03/19 05:22:40;;;;;;;80.93;46.43;;;;;;;;;;6159574;23;20162;-81
2022/03/19 05:25:06;;;;;;;75.93;43.80;;;;;;;;;;6161277;23;20253;-81
2022/03/19 05:27:32;;;;;;;79.93;46.23;;;;;;;;;;6162266;23;20189;-81
2022/03/19 05:29:58;;;;;;;81.70;46.07;;;;;;;;;;6135550;23;20218;-81
2022/03/19 05:32:24;;;;;;;78.37;45.90;;;;;;;;;;6162385;23;20165;-82
2022/03/19 05:34:51;;;;;;;80.53;46.17;;;;;;;;;;6164742;23;20165;-82
2022/03/19 05:37:17;;;;;;;75.97;43.90;;;;;;;;;;6163351;23;20188;-81
2022/03/19 05:39:43;;;;;;;81.90;45.50;;;;;;;;;;6162111;23;20156;-81
2022/03/19 05:42:11;;;;;;;78.13;44.50;;;;;;;;;;6162207;23;20150;-82
2022/03/19 05:44:37;;;;;;;77.57;45.37;;;;;;;;;;6161542;23;20184;-81
2022/03/19 05:47:04;;;;;;;82.27;47.27;;;;;;;;;;6161369;23;20140;-81
2022/03/19 05:49:30;;;;;;;79.13;43.17;;;;;;;;;;6162899;23;20627;-81
2022/03/19 05:51:57;;;;;;;71.60;42.43;;;;;;;;;;6136566;23;20153;-81
2022/03/19 05:54:23;;;;;;;71.70;42.57;;;;;;;;;;6162429;23;20180;-81
2022/03/19 05:56:49;;;;;;;76.40;43.67;;;;;;;;;;6161690;23;20591;-81
2022/03/19 05:59:15;;;;;;;73.53;43.40;;;;;;;;;;6161739;23;20208;-81
2022/03/19 06:01:42;;;;;;;70.70;42.07;;;;;;;;;;6135135;23;20185;-81
2022/03/19 06:04:08;;;;;;;74.77;42.40;;;;;;;;;;6161905;23;20182;-81
2022/03/19 06:06:34;;;;;;;75.47;41.77;;;;;;;;;;6111691;23;20169;-81
2022/03/19 06:09:00;;;;;;;70.17;40.07;;;;;;;;;;6161968;23;20178;-81
2022/03/19 06:11:26;;;;;;;69.30;41.63;;;;;;;;;;6135246;23;20152;-81
2022/03/19 06:13:52;;;;;;;75.03;41.97;;;;;;;;;;6143977;23;20213;-81
2022/03/19 06:16:18;;;;;;;73.43;40.07;;;;;;;;;;6159655;23;20521;-80
2022/03/19 06:18:47;;;;;;;70.00;41.53;;;;;;;;;;6161325;23;20156;-80
2022/03/19 06:21:13;;;;;;;62.80;38.10;;;;;;;;;;6160878;23;20149;-81
2022/03/19 06:23:39;;;;;;;72.20;40.63;;;;;;;;;;6159101;23;20216;-80
2022/03/19 06:26:05;;;;;;;65.13;38.20;;;;;;;;;;6161637;23;20160;-81
2022/03/19 06:28:32;;;;;;;61.90;38.23;;;;;;;;;;6159227;23;20186;-80
2022/03/19 06:30:58;;;;;;;65.50;38.57;;;;;;;;;;6161184;23;20154;-81
2022/03/19 06:33:24;;;;;;;66.00;38.43;;;;;;;;;;6160858;23;20170;-81
2022/03/19 06:38:34;;;;;;;62.77;37.57;;;;;;;;;;6161648;23;20226;-80
2022/03/19 06:41:00;;;;;;;64.03;37.63;;;;;;;;;;6159744;23;20153;-80
2022/03/19 06:43:27;;;;;;;62.63;38.20;;;;;;;;;;6161147;23;20185;-81
2022/03/19 06:45:59;;;;;;;62.70;37.40;;;;;;;;;;6161118;23;20174;-81
2022/03/19 06:48:26;;;;;;;64.47;37.87;;;;;;;;;;6161892;23;20177;-81
2022/03/19 06:50:54;;;;;;;66.20;38.93;;;;;;;;;;6161079;23;20245;-81
2022/03/19 06:53:20;;;;;;;64.30;39.27;;;;;;;;;;6161436;23;20189;-81
2022/03/19 06:55:46;;;;;;;64.73;38.47;;;;;;;;;;6159141;23;20162;-81
2022/03/19 06:58:12;;;;;;;63.13;38.87;;;;;;;;;;6161242;23;20155;-82
2022/03/19 07:00:40;;;;;;;57.63;35.30;;;;;;;;;;6160689;23;20154;-81
2022/03/19 07:03:06;;;;;;;60.07;37.33;;;;;;;;;;6160198;23;20182;-81
2022/03/19 07:05:32;;;;;;;59.77;36.57;;;;;;;;;;6159707;23;20158;-81
2022/03/19 07:07:59;;;;;;;58.10;37.10;;;;;;;;;;6161003;23;20202;-82
2022/03/19 07:10:25;;;;;;;59.60;36.30;;;;;;;;;;6160684;23;20158;-81
2022/03/19 07:12:55;;;;;;;57.23;35.37;;;;;;;;;;6160697;23;20612;-81
2022/03/19 07:15:24;;;;;;;61.40;37.10;;;;;;;;;;6160696;23;20142;-82
2022/03/19 07:17:50;;;;;;;60.33;36.57;;;;;;;;;;6160425;23;20154;-82
2022/03/19 07:20:17;;;;;;;55.87;34.83;;;;;;;;;;6168805;23;20151;-81
2022/03/19 07:22:50;;;;;;;60.63;36.33;;;;;;;;;;6147990;23;20159;-81
2022/03/19 07:25:17;;;;;;;55.27;34.47;;;;;;;;;;6170786;23;20169;-82
2022/03/19 07:27:43;;;;;;;57.00;35.37;;;;;;;;;;6161280;23;20181;-82
2022/03/19 07:30:10;;;;;;;59.80;35.73;;;;;;;;;;6159484;23;20532;-81
2022/03/19 07:32:36;;;;;;;56.00;33.97;;;;;;;;;;6160504;23;20466;-81
2022/03/19 07:35:02;;;;;;;57.80;34.70;;;;;;;;;;6159575;23;20250;-81
2022/03/19 07:37:28;;;;;;;51.90;32.93;;;;;;;;;;6133471;23;20181;-83
2022/03/19 07:39:56;;;;;;;57.27;34.43;;;;;;;;;;6160909;23;20620;-83
2022/03/19 07:42:22;;;;;;;55.87;34.17;;;;;;;;;;6162768;23;20161;-82
2022/03/19 07:44:48;;;;;;;56.30;33.13;;;;;;;;;;6162554;23;20268;-82
2022/03/19 07:47:14;;;;;;;52.43;32.73;;;;;;;;;;6137432;23;20162;-80
2022/03/19 07:49:40;;;;;;;54.93;33.17;;;;;;;;;;6137183;23;20152;-82
2022/03/19 07:52:30;;;;;;;55.13;33.80;;;;;;;;;;6137004;23;20632;-79
2022/03/19 07:55:14;;;;;;;51.43;33.07;;;;;;;;;;6186548;22;20203;-82
2022/03/19 08:00:35;;;;;;;54.17;33.67;;;;;;;;;;6101317;23;20539;-79
2022/03/19 08:03:27;;;;;;;47.13;31.13;;;;;;;;;;6182066;22;20146;-81
2022/03/19 08:05:55;;;;;;;50.33;33.27;;;;;;;;;;6150982;23;20617;-82
2022/03/19 08:08:24;;;;;;;52.70;30.97;;;;;;;;;;6159633;23;20182;-81
2022/03/19 08:10:50;;;;;;;48.50;30.30;;;;;;;;;;6160857;23;20167;-84
2022/03/19 08:13:31;;;;;;;45.70;29.80;;;;;;;;;;6160450;23;20175;-83
2022/03/19 08:16:00;;;;;;;47.83;30.83;;;;;;;;;;6160800;23;20142;-82
2022/03/19 08:18:26;;;;;;;48.73;30.37;;;;;;;;;;6160428;23;20233;-83
2022/03/19 08:20:58;;;;;;;51.77;31.27;;;;;;;;;;6160540;23;20150;-82
2022/03/19 08:23:24;;;;;;;45.63;31.03;;;;;;;;;;6159597;23;20167;-82
2022/03/19 08:25:50;;;;;;;45.57;29.47;;;;;;;;;;6160262;23;20158;-81
2022/03/19 08:28:16;;;;;;;44.07;29.00;;;;;;;;;;6157598;23;20260;-82
2022/03/19 08:30:42;;;;;;;43.70;29.43;;;;;;;;;;6158652;23;20154;-82
2022/03/19 08:33:08;;;;;;;43.73;28.83;;;;;;;;;;6159458;23;20483;-82
2022/03/19 08:35:34;;;;;;;40.87;28.13;;;;;;;;;;6159672;23;20150;-81
2022/03/19 08:40:54;;;;;;;41.43;27.83;;;;;;;;;;6155796;23;20187;-82
2022/03/19 08:43:21;;;;;;;41.47;28.07;;;;;;;;;;6157898;23;20178;-81
2022/03/19 08:45:47;;;;;;;47.97;29.70;;;;;;;;;;6160669;23;20158;-81
2022/03/19 08:48:13;;;;;;;43.70;28.83;;;;;;;;;;6156811;23;20181;-81
2022/03/19 08:50:40;;;;;;;42.47;28.87;;;;;;;;;;6158752;23;20143;-81
2022/03/19 08:53:06;;;;;;;43.23;28.40;;;;;;;;;;6156994;23;20264;-80
2022/03/19 08:55:32;;;;;;;42.00;28.23;;;;;;;;;;6159274;23;20211;-81
2022/03/19 08:57:59;;;;;;;40.47;27.90;;;;;;;;;;6157107;23;20155;-81
2022/03/19 09:00:25;;;;;;;38.97;26.47;;;;;;;;;;6158684;23;20179;-81
2022/03/19 09:02:51;;;;;;;40.63;27.33;;;;;;;;;;6157955;23;20480;-81
2022/03/19 09:05:17;;;;;;;38.93;26.50;;;;;;;;;;6160052;23;20159;-81
2022/03/19 09:07:43;;;;;;;40.27;26.57;;;;;;;;;;6159429;23;20168;-80
2022/03/19 09:10:09;;;;;;;40.37;27.50;;;;;;;;;;6157393;23;20152;-80
2022/03/19 09:12:36;;;;;;;39.90;27.03;;;;;;;;;;6157427;23;20154;-81
2022/03/19 09:15:02;;;;;;;37.70;26.50;;;;;;;;;;6129583;23;20175;-81
2022/03/19 09:17:28;;;;;;;37.10;26.97;;;;;;;;;;6132710;23;20162;-82
2022/03/19 09:19:54;;;;;;;34.53;24.83;;;;;;;;;;6158043;23;20163;-81
2022/03/19 09:22:20;;;;;;;39.07;25.63;;;;;;;;;;6165470;23;20148;-82
2022/03/19 09:24:46;;;;;;;37.07;25.33;;;;;;;;;;6147070;23;20179;-82
2022/03/19 09:27:12;;;;;;;37.90;26.07;;;;;;;;;;6165680;23;20170;-82
2022/03/19 09:29:38;;;;;;;39.07;26.40;;;;;;;;;;6134200;23;20159;-82
2022/03/19 09:32:04;;;;;;;38.67;26.37;;;;;;;;;;6133695;23;20162;-82
2022/03/19 09:34:30;;;;;;;36.17;26.80;;;;;;;;;;6161358;23;20167;-82
2022/03/19 09:36:57;;;;;;;42.73;26.47;;;;;;;;;;6162064;23;20485;-81
2022/03/19 09:39:23;;;;;;;40.73;26.20;;;;;;;;;;6135884;23;20152;-82
2022/03/19 09:41:50;;;;;;;38.67;27.30;;;;;;;;;;6160419;23;20154;-82
2022/03/19 09:44:17;;;;;;;36.33;25.87;;;;;;;;;;6161836;23;20242;-82
2022/03/19 09:46:45;;;;;;;37.80;27.43;;;;;;;;;;6161568;23;20171;-81
2022/03/19 09:49:11;;;;;;;38.10;25.67;;;;;;;;;;6161783;23;20174;-82
2022/03/19 09:51:44;;;;;;;38.57;26.87;;;;;;;;;;6161463;23;20166;-82
2022/03/19 09:54:10;;;;;;;39.57;27.03;;;;;;;;;;6161568;23;20207;-83
2022/03/19 09:56:36;;;;;;;38.70;27.17;;;;;;;;;;6134811;23;20152;-82
2022/03/19 09:59:03;;;;;;;38.33;25.53;;;;;;;;;;6162488;23;20246;-83
2022/03/19 10:01:31;;;;;;;35.10;24.67;;;;;;;;;;6162153;23;20152;-83
2022/03/19 10:04:00;;;;;;;34.67;26.23;;;;;;;;;;6161448;23;20188;-82
2022/03/19 10:09:17;;;;;;;40.63;26.37;;;;;;;;;;6161427;23;20175;-83
2022/03/19 10:11:47;;;;;;;38.23;26.60;;;;;;;;;;6158637;23;20134;-82
2022/03/19 10:14:19;;;;;;;35.40;25.20;;;;;;;;;;6160357;23;20190;-81
2022/03/19 10:16:48;;;;;;;37.20;25.97;;;;;;;;;;6133568;23;20148;-81
2022/03/19 10:19:14;;;;;;;38.53;26.90;;;;;;;;;;6161480;23;20153;-83
2022/03/19 10:21:41;;;;;;;43.13;27.27;;;;;;;;;;6160585;23;20160;-85
2022/03/19 10:24:07;;;;;;;36.13;26.23;;;;;;;;;;6160245;23;20640;-80
2022/03/19 10:26:35;;;;;;;37.50;26.77;;;;;;;;;;6161267;23;20228;-82
2022/03/19 10:29:01;;;;;;;40.00;27.33;;;;;;;;;;6160885;23;20694;-81
2022/03/19 10:31:37;;;;;;;37.00;26.10;;;;;;;;;;6161189;23;20152;-82
2022/03/19 10:34:05;;;;;;;35.20;26.17;;;;;;;;;;6161480;23;20178;-82
2022/03/19 10:36:35;;;;;;;36.23;26.33;;;;;;;;;;6161056;23;20238;-82
2022/03/19 10:39:06;;;;;;;35.37;26.00;;;;;;;;;;6135134;23;20159;-81
2022/03/19 10:41:36;;;;;;;34.93;25.43;;;;;;;;;;6160443;23;20155;-80
2022/03/19 10:44:11;;;;;;;35.70;24.93;;;;;;;;;;6160586;23;20625;-80
2022/03/19 10:46:37;;;;;;;34.00;24.20;;;;;;;;;;6138807;23;20215;-81
2022/03/19 10:52:02;;;;;;;31.77;23.67;;;;;;;;;;6144008;23;20156;-80
2022/03/19 10:54:31;;;;;;;33.43;24.10;;;;;;;;;;6160221;23;20192;-82
2022/03/19 10:56:57;;;;;;;35.80;24.67;;;;;;;;;;6161053;23;20261;-80
2022/03/19 10:59:24;;;;;;;33.93;24.27;;;;;;;;;;6160502;23;20148;-81
2022/03/19 11:01:51;;;;;;;34.93;24.10;;;;;;;;;;6134751;23;20161;-82
2022/03/19 11:04:17;;;;;;;33.57;23.03;;;;;;;;;;6161434;23;20247;-83
2022/03/19 11:06:45;;;;;;;32.40;24.07;;;;;;;;;;6135972;23;20153;-83
2022/03/19 11:09:13;;;;;;;31.33;23.67;;;;;;;;;;6162420;23;20178;-80
2022/03/19 11:11:40;;;;;;;30.87;22.77;;;;;;;;;;6133169;23;20663;-79
2022/03/19 11:14:08;;;;;;;29.40;22.93;;;;;;;;;;6161200;23;20175;-80
2022/03/19 11:16:38;;;;;;;29.63;21.73;;;;;;;;;;6161208;23;20600;-80
2022/03/19 11:19:04;;;;;;;30.23;22.30;;;;;;;;;;6160465;23;20492;-80
2022/03/19 11:21:32;;;;;;;31.17;23.50;;;;;;;;;;6134452;23;20167;-81
2022/03/19 11:24:22;;;;;;;33.47;24.03;;;;;;;;;;6160287;23;20201;-80
2022/03/19 11:26:49;;;;;;;31.13;23.13;;;;;;;;;;6133650;23;20150;-80
2022/03/19 11:29:15;;;;;;;30.87;23.20;;;;;;;;;;6159659;23;20639;-80
2022/03/19 11:31:43;;;;;;;33.73;24.30;;;;;;;;;;6160154;23;20146;-81
2022/03/19 11:34:19;;;;;;;33.60;24.40;;;;;;;;;;6160115;23;20171;-80
2022/03/19 11:36:58;;;;;;;34.67;24.13;;;;;;;;;;6159847;23;20161;-81
2022/03/19 11:39:24;;;;;;;33.00;24.70;;;;;;;;;;6158630;23;20147;-83
2022/03/19 11:41:51;;;;;;;31.93;25.00;;;;;;;;;;6159297;23;20151;-81
2022/03/19 11:44:20;;;;;;;31.23;25.23;;;;;;;;;;6160054;23;20171;-81
2022/03/19 11:47:03;;;;;;;31.53;24.97;;;;;;;;;;6160324;23;20184;-82
2022/03/19 11:49:52;;;;;;;32.27;24.60;;;;;;;;;;6160093;23;20261;-82
2022/03/19 11:52:24;;;;;;;32.80;23.90;;;;;;;;;;6160682;23;20200;-82
2022/03/19 11:55:06;;;;;;;30.77;23.27;;;;;;;;;;6132689;23;20196;-81
2022/03/19 11:57:55;;;;;;;32.27;22.97;;;;;;;;;;6158704;23;20148;-81
2022/03/19 12:00:22;;;;;;;34.70;26.43;;;;;;;;;;6133391;23;20149;-81
2022/03/19 12:03:03;;;;;;;33.93;25.47;;;;;;;;;;6160304;23;20155;-81
2022/03/19 12:05:30;;;;;;;31.80;23.03;;;;;;;;;;6133386;23;20169;-81
2022/03/19 12:07:59;;;;;;;34.63;24.97;;;;;;;;;;6116025;23;20179;-81
2022/03/19 12:10:25;;;;;;;32.33;23.87;;;;;;;;;;6142150;23;20179;-82
2022/03/19 12:12:52;;;;;;;32.30;25.53;;;;;;;;;;6108306;23;20154;-81
2022/03/19 12:15:30;;;;;;;33.43;24.90;;;;;;;;;;6132034;23;20146;-81
2022/03/19 12:18:15;;;;;;;37.60;25.30;;;;;;;;;;6105661;23;20160;-82
2022/03/19 12:20:44;;;;;;;33.30;24.43;;;;;;;;;;6131901;23;20179;-82
2022/03/19 12:23:11;;;;;;;33.17;24.60;;;;;;;;;;6105292;23;20187;-81
2022/03/19 12:25:42;;;;;;;28.87;23.83;;;;;;;;;;6131691;23;20155;-81
2022/03/19 12:28:08;;;;;;;33.80;25.37;;;;;;;;;;6104982;23;20202;-82
2022/03/19 12:30:36;;;;;;;34.00;25.67;;;;;;;;;;6104760;23;20174;-81
2022/03/19 12:33:02;;;;;;;33.47;25.50;;;;;;;;;;6130502;23;20148;-81
2022/03/19 12:35:38;;;;;;;37.67;25.07;;;;;;;;;;6131410;23;20481;-82
2022/03/19 12:38:04;;;;;;;35.53;24.93;;;;;;;;;;6130876;23;20155;-82
2022/03/19 12:41:23;;;;;;;36.50;27.03;;;;;;;;;;6105014;23;20549;-81
2022/03/19 12:43:18;;;;;;;33.30;25.37;;;;;;;;;;6131332;23;20183;-81
2022/03/19 12:45:48;;;;;;;36.23;26.27;;;;;;;;;;6104181;23;20159;-81
2022/03/19 12:48:15;;;;;;;37.17;25.50;;;;;;;;;;6131491;23;20167;-81
2022/03/19 12:50:51;;;;;;;34.73;25.23;;;;;;;;;;6103696;23;20155;-82
2022/03/19 12:53:28;;;;;;;34.03;25.43;;;;;;;;;;6104302;23;20171;-81
2022/03/19 12:56:09;;;;;;;35.40;25.23;;;;;;;;;;6130915;23;20140;-82
2022/03/19 12:58:37;;;;;;;34.70;25.60;;;;;;;;;;6131159;23;20154;-82
2022/03/19 13:01:06;;;;;;;32.77;25.43;;;;;;;;;;6130377;23;20159;-81
2022/03/19 13:03:32;;;;;;;32.93;25.87;;;;;;;;;;6136699;23;20193;-82
2022/03/19 13:05:58;;;;;;;32.23;25.40;;;;;;;;;;6133291;23;20175;-82
2022/03/19 13:08:24;;;;;;;31.50;24.70;;;;;;;;;;6159800;23;20174;-81
2022/03/19 13:10:52;;;;;;;31.90;24.50;;;;;;;;;;6160405;23;20254;-83
2022/03/19 13:13:18;;;;;;;32.07;24.50;;;;;;;;;;6161492;23;20216;-82
2022/03/19 13:15:52;;;;;;;35.63;24.43;;;;;;;;;;6161406;23;20600;-82
2022/03/19 13:18:28;;;;;;;30.67;22.97;;;;;;;;;;6161880;23;20175;-83
2022/03/19 13:21:08;;;;;;;32.17;24.27;;;;;;;;;;6161816;23;20532;-82
2022/03/19 13:23:35;;;;;;;32.97;23.57;;;;;;;;;;6161865;23;20169;-81
2022/03/19 13:26:02;;;;;;;31.17;23.53;;;;;;;;;;6161394;23;20154;-83
2022/03/19 13:28:28;;;;;;;29.20;21.77;;;;;;;;;;6161849;23;20189;-81
2022/03/19 13:30:57;;;;;;;26.97;21.97;;;;;;;;;;6161510;23;20531;-81
2022/03/19 13:33:23;;;;;;;30.73;22.10;;;;;;;;;;6161650;23;20306;-81
2022/03/19 13:35:51;;;;;;;22.77;19.03;;;;;;;;;;6159021;23;20553;-81
2022/03/19 13:38:18;;;;;;;23.27;18.50;;;;;;;;;;6161141;23;20178;-80
2022/03/19 13:40:45;;;;;;;31.90;20.47;;;;;;;;;;6161916;23;20209;-81
2022/03/19 13:43:12;;;;;;;29.87;21.07;;;;;;;;;;6135599;23;20204;-81
2022/03/19 13:45:38;;;;;;;24.47;18.97;;;;;;;;;;6161975;23;20154;-80
2022/03/19 13:48:08;;;;;;;22.43;18.57;;;;;;;;;;6161504;23;20174;-84
2022/03/19 13:50:41;;;;;;;26.10;19.00;;;;;;;;;;6136240;23;20156;-83
2022/03/19 13:53:08;;;;;;;26.50;19.00;;;;;;;;;;6135966;23;20223;-81
2022/03/19 13:55:39;;;;;;;24.87;19.27;;;;;;;;;;6161785;23;20155;-80
2022/03/19 13:58:07;;;;;;;18.47;15.77;;;;;;;;;;6162543;23;20182;-81
2022/03/19 14:00:37;;;;;;;17.87;15.60;;;;;;;;;;6135282;23;20159;-80
2022/03/19 14:03:04;;;;;;;20.53;14.73;;;;;;;;;;6161865;23;20163;-81
2022/03/19 14:05:31;;;;;;;20.87;13.83;;;;;;;;;;6162388;23;20154;-81
2022/03/19 14:07:58;;;;;;;20.07;15.40;;;;;;;;;;6162190;23;20261;-79
2022/03/19 14:10:44;;;;;;;18.73;14.50;;;;;;;;;;6162223;23;20151;-79
2022/03/19 14:13:17;;;;;;;15.63;13.97;;;;;;;;;;6130256;23;20189;-80
2022/03/19 14:15:44;;;;;;;17.03;14.43;;;;;;;;;;6162276;23;20155;-81
2022/03/19 14:18:20;;;;;;;15.90;13.50;;;;;;;;;;6162380;23;20152;-81
2022/03/19 14:20:46;;;;;;;15.43;12.90;;;;;;;;;;6162257;23;20149;-83
2022/03/19 14:23:12;;;;;;;18.37;13.50;;;;;;;;;;6136108;23;20258;-80
2022/03/19 14:25:38;;;;;;;15.13;13.10;;;;;;;;;;6162105;23;20160;-83
2022/03/19 14:28:05;;;;;;;15.70;12.60;;;;;;;;;;6161950;23;20170;-83
2022/03/19 14:30:32;;;;;;;14.27;12.77;;;;;;;;;;6162118;23;20156;-81
2022/03/19 14:33:00;;;;;;;20.13;13.60;;;;;;;;;;6162518;23;20154;-82
2022/03/19 14:35:45;;;;;;;22.50;14.13;;;;;;;;;;6136223;23;20159;-81
2022/03/19 14:38:14;;;;;;;14.87;11.90;;;;;;;;;;6136705;23;20153;-83
2022/03/19 14:40:41;;;;;;;17.37;12.50;;;;;;;;;;6163591;23;20154;-82
2022/03/19 14:43:07;;;;;;;14.63;12.00;;;;;;;;;;6163099;23;20155;-82